Time;durP1;ratioP1;P1;durP2;ratioP2;P2;SDS_P1;SDS_P2;PMS_P1;PMS_P2;Temp;Humidity;BMP_temperature;BMP_pressure;BME280_temperature;BME280_humidity;BME280_pressure;Samples;Min_cycle;Max_cycle;Signal;HPM_P1;HPM_P2
2022/11/27 00:00:12;;;;;;;;;;;;;;;;;;5076554;28;19925;-79
2022/11/27 00:02:39;;;;;;;;;;;;;;;;;;5054691;28;20321;-79
2022/11/27 00:05:07;;;;;;;;;;;;;;;;;;5053605;28;20019;-80
2022/11/27 00:07:34;;;;;;;;;;;;;;;;;;5052105;28;19960;-80
2022/11/27 00:10:00;;;;;;;;;;;;;;;;;;5052488;28;20004;-79
2022/11/27 00:12:27;;;;;;;;;;;;;;;;;;5052543;28;19928;-80
2022/11/27 00:14:53;;;;;;;;;;;;;;;;;;5052792;28;20306;-80
2022/11/27 00:17:20;;;;;;;;;;;;;;;;;;5061163;28;19924;-80
2022/11/27 00:19:46;;;;;;;;;;;;;;;;;;5073887;28;20010;-80
2022/11/27 00:22:14;;;;;;;;;;;;;;;;;;5069241;28;19925;-79
2022/11/27 00:24:43;;;;;;;;;;;;;;;;;;5054650;28;19984;-80
2022/11/27 00:27:10;;;;;;;;;;;;;;;;;;5055374;28;20472;-80
2022/11/27 00:29:36;;;;;;;;;;;;;;;;;;5060264;28;19931;-80
2022/11/27 00:32:05;;;;;;;;;;;;;;;;;;5054402;28;19929;-80
2022/11/27 00:34:31;;;;;;;;;;;;;;;;;;5054606;28;19924;-81
2022/11/27 00:36:58;;;;;;;;;;;;;;;;;;5053690;28;20382;-80
2022/11/27 00:39:26;;;;;;;;;;;;;;;;;;5054711;28;19955;-80
2022/11/27 00:41:53;;;;;;;;;;;;;;;;;;5067343;28;20272;-79
2022/11/27 00:44:20;;;;;;;;;;;;;;;;;;5070697;28;20012;-79
2022/11/27 00:46:46;;;;;;;;;;;;;;;;;;5070702;28;19971;-79
2022/11/27 00:49:14;;;;;;;;;;;;;;;;;;5075492;28;19932;-80
2022/11/27 00:51:40;;;;;;;;;;;;;;;;;;5058412;28;19928;-81
2022/11/27 00:54:07;;;;;;;;;;;;;;;;;;5054608;28;20446;-80
2022/11/27 00:56:36;;;;;;;;;;;;;;;;;;5062747;28;19924;-78
2022/11/27 00:59:03;;;;;;;;;;;;;;;;;;5064295;28;20203;-79
2022/11/27 01:01:31;;;;;;;;;;;;;;;;;;5083099;22;19916;-80
2022/11/27 01:03:58;;;;;;;;;;;;;;;;;;5090312;28;20305;-80
2022/11/27 01:06:25;;;;;;;;;;;;;;;;;;5083470;28;19963;-80
2022/11/27 01:08:52;;;;;;;;;;;;;;;;;;5093242;28;19924;-80
2022/11/27 01:11:20;;;;;;;;;;;;;;;;;;5092727;28;19924;-78
2022/11/27 01:13:48;;;;;;;;;;;;;;;;;;5072426;28;20121;-79
2022/11/27 01:16:15;;;;;;;;;;;;;;;;;;5073135;28;19931;-80
2022/11/27 01:18:43;;;;;;;;;;;;;;;;;;5074804;28;19924;-81
2022/11/27 01:21:10;;;;;;;;;;;;;;;;;;5082362;28;20009;-80
2022/11/27 01:23:36;;;;;;;;;;;;;;;;;;5088967;28;19992;-81
2022/11/27 01:26:04;;;;;;;;;;;;;;;;;;5080412;28;20365;-80
2022/11/27 01:28:30;;;;;;;;;;;;;;;;;;5073218;28;19962;-80
2022/11/27 01:30:59;;;;;;;;;;;;;;;;;;5074041;28;20015;-80
2022/11/27 01:33:25;;;;;;;;;;;;;;;;;;5074070;28;20015;-80
2022/11/27 01:35:56;;;;;;;;;;;;;;;;;;5078144;28;20011;-80
2022/11/27 01:38:23;;;;;;;;;;;;;;;;;;5077747;28;19925;-78
2022/11/27 01:40:49;;;;;;;;;;;;;;;;;;5077237;28;20019;-80
2022/11/27 01:43:16;;;;;;;;;;;;;;;;;;5076987;28;20280;-79
2022/11/27 01:45:44;;;;;;;;;;;;;;;;;;5078332;28;20020;-82
2022/11/27 01:48:12;;;;;;;;;;;;;;;;;;5077701;28;19925;-80
2022/11/27 01:50:39;;;;;;;;;;;;;;;;;;5077729;28;20012;-81
2022/11/27 01:53:08;;;;;;;;;;;;;;;;;;5080205;28;19976;-81
2022/11/27 01:55:36;;;;;;;;;;;;;;;;;;5082864;28;19964;-79
2022/11/27 01:58:05;;;;;;;;;;;;;;;;;;5082063;28;20015;-81
2022/11/27 02:00:31;;;;;;;;;;;;;;;;;;5081566;28;19974;-80
2022/11/27 02:02:58;;;;;;;;;;;;;;;;;;5081771;28;20012;-81
2022/11/27 02:05:27;;;;;;;;;;;;;;;;;;5071568;28;20039;-81
2022/11/27 02:07:54;;;;;;;;;;;;;;;;;;5080946;28;20558;-81
2022/11/27 02:10:21;;;;;;;;;;;;;;;;;;5080691;28;19955;-81
2022/11/27 02:12:52;;;;;;;;;;;;;;;;;;5080210;28;19970;-82
2022/11/27 02:15:20;;;;;;;;;;;;;;;;;;5079869;28;19947;-82
2022/11/27 02:17:49;;;;;;;;;;;;;;;;;;5079541;28;20022;-82
2022/11/27 02:20:24;;;;;;;;;;;;;;;;;;5080220;28;19993;-81
2022/11/27 02:22:59;;;;;;;;;;;;;;;;;;5079314;28;20356;-81
2022/11/27 02:25:30;;;;;;;;;;;;;;;;;;5079689;28;20007;-81
2022/11/27 02:28:05;;;;;;;;;;;;;;;;;;5078827;28;20510;-81
2022/11/27 02:30:35;;;;;;;;;;;;;;;;;;5079212;28;19925;-81
2022/11/27 02:33:06;;;;;;;;;;;;;;;;;;5078181;28;20031;-79
2022/11/27 02:35:36;;;;;;;;;;;;;;;;;;5078511;28;19925;-81
2022/11/27 02:38:06;;;;;;;;;;;;;;;;;;5077933;28;19982;-80
2022/11/27 02:40:36;;;;;;;;;;;;;;;;;;5058241;28;19925;-80
2022/11/27 02:43:05;;;;;;;;;;;;;;;;;;5058805;28;19925;-80
2022/11/27 02:45:35;;;;;;;;;;;;;;;;;;5076956;28;20011;-81
2022/11/27 02:48:03;;;;;;;;;;;;;;;;;;5077512;28;19931;-81
2022/11/27 02:50:30;;;;;;;;;;;;;;;;;;5056877;28;19975;-81
2022/11/27 02:53:00;;;;;;;;;;;;;;;;;;5067124;28;20309;-79
2022/11/27 02:55:30;;;;;;;;;;;;;;;;;;5076909;28;19999;-80
2022/11/27 02:57:57;;;;;;;;;;;;;;;;;;5076515;28;19931;-80
2022/11/27 03:00:23;;;;;;;;;;;;;;;;;;5077617;28;20007;-80
2022/11/27 03:02:53;;;;;;;;;;;;;;;;;;5076522;28;20015;-80
2022/11/27 03:05:20;;;;;;;;;;;;;;;;;;5077103;28;19967;-79
2022/11/27 03:07:48;;;;;;;;;;;;;;;;;;5076029;28;19924;-81
2022/11/27 03:10:18;;;;;;;;;;;;;;;;;;5077380;28;19924;-81
2022/11/27 03:12:44;;;;;;;;;;;;;;;;;;5076436;28;19978;-81
2022/11/27 03:15:11;;;;;;;;;;;;;;;;;;5076233;28;19959;-81
2022/11/27 03:17:46;;;;;;;;;;;;;;;;;;5076383;28;20020;-80
2022/11/27 03:20:16;;;;;;;;;;;;;;;;;;5077584;28;19968;-81
2022/11/27 03:22:42;;;;;;;;;;;;;;;;;;5077286;28;20370;-81
2022/11/27 03:25:09;;;;;;;;;;;;;;;;;;5076929;28;19931;-79
2022/11/27 03:27:39;;;;;;;;;;;;;;;;;;5076272;28;19925;-81
2022/11/27 03:30:07;;;;;;;;;;;;;;;;;;5076282;28;19946;-80
2022/11/27 03:32:34;;;;;;;;;;;;;;;;;;5080447;28;19924;-81
2022/11/27 03:35:01;;;;;;;;;;;;;;;;;;5079203;28;19991;-80
2022/11/27 03:37:28;;;;;;;;;;;;;;;;;;5075872;28;20027;-78
2022/11/27 03:39:55;;;;;;;;;;;;;;;;;;5076089;28;19960;-79
2022/11/27 03:42:23;;;;;;;;;;;;;;;;;;5075429;28;20075;-81
2022/11/27 03:44:53;;;;;;;;;;;;;;;;;;5075931;28;20406;-81
2022/11/27 03:47:25;;;;;;;;;;;;;;;;;;5075691;28;20011;-80
2022/11/27 03:49:56;;;;;;;;;;;;;;;;;;5076609;28;20011;-81
2022/11/27 03:52:26;;;;;;;;;;;;;;;;;;5075499;28;19978;-81
2022/11/27 03:54:59;;;;;;;;;;;;;;;;;;5076428;28;19931;-80
2022/11/27 03:57:28;;;;;;;;;;;;;;;;;;5076194;28;20016;-81
2022/11/27 03:59:56;;;;;;;;;;;;;;;;;;5077506;28;19968;-82
2022/11/27 04:02:27;;;;;;;;;;;;;;;;;;5077990;28;19947;-80
2022/11/27 04:04:54;;;;;;;;;;;;;;;;;;5072768;28;20003;-79
2022/11/27 04:07:20;;;;;;;;;;;;;;;;;;5076375;28;19992;-81
2022/11/27 04:09:47;;;;;;;;;;;;;;;;;;5077032;28;19988;-80
2022/11/27 04:12:15;;;;;;;;;;;;;;;;;;5076041;28;20078;-79
2022/11/27 04:14:41;;;;;;;;;;;;;;;;;;5075979;28;19924;-81
2022/11/27 04:17:08;;;;;;;;;;;;;;;;;;5075512;28;20040;-81
2022/11/27 04:19:34;;;;;;;;;;;;;;;;;;5076093;28;20354;-81
2022/11/27 04:22:00;;;;;;;;;;;;;;;;;;5076313;28;19931;-79
2022/11/27 04:24:27;;;;;;;;;;;;;;;;;;5077199;28;20027;-81
2022/11/27 04:26:53;;;;;;;;;;;;;;;;;;5075585;28;19972;-81
2022/11/27 04:29:21;;;;;;;;;;;;;;;;;;5076664;28;20015;-81
2022/11/27 04:31:47;;;;;;;;;;;;;;;;;;5076681;28;20008;-81
2022/11/27 04:34:14;;;;;;;;;;;;;;;;;;5077359;28;20011;-81
2022/11/27 04:36:41;;;;;;;;;;;;;;;;;;5077552;28;19970;-80
2022/11/27 04:39:07;;;;;;;;;;;;;;;;;;5077751;28;19974;-80
2022/11/27 04:41:34;;;;;;;;;;;;;;;;;;5078659;28;19978;-81
2022/11/27 04:44:00;;;;;;;;;;;;;;;;;;5081362;28;19925;-79
2022/11/27 04:46:28;;;;;;;;;;;;;;;;;;5093172;28;19982;-78
2022/11/27 04:48:54;;;;;;;;;;;;;;;;;;5086073;28;20011;-82
2022/11/27 04:51:21;;;;;;;;;;;;;;;;;;5079163;28;20011;-80
2022/11/27 04:53:47;;;;;;;;;;;;;;;;;;5078456;28;20393;-81
2022/11/27 04:56:13;;;;;;;;;;;;;;;;;;5092752;28;19956;-78
2022/11/27 04:58:40;;;;;;;;;;;;;;;;;;5092006;28;19955;-79
2022/11/27 05:01:07;;;;;;;;;;;;;;;;;;5090520;28;19931;-80
2022/11/27 05:03:35;;;;;;;;;;;;;;;;;;5079044;28;20015;-80
2022/11/27 05:06:01;;;;;;;;;;;;;;;;;;5078209;28;20386;-82
2022/11/27 05:08:29;;;;;;;;;;;;;;;;;;5077606;28;19967;-81
2022/11/27 05:10:59;;;;;;;;;;;;;;;;;;5081932;28;19924;-82
2022/11/27 05:13:26;;;;;;;;;;;;;;;;;;5080670;28;20020;-81
2022/11/27 05:15:52;;;;;;;;;;;;;;;;;;5080798;28;20019;-81
2022/11/27 05:18:19;;;;;;;;;;;;;;;;;;5079550;28;20388;-79
2022/11/27 05:20:47;;;;;;;;;;;;;;;;;;5080784;28;19935;-81
2022/11/27 05:23:13;;;;;;;;;;;;;;;;;;5080110;28;20426;-81
2022/11/27 05:25:39;;;;;;;;;;;;;;;;;;5080570;28;20011;-80
2022/11/27 05:28:06;;;;;;;;;;;;;;;;;;5080617;28;20295;-80
2022/11/27 05:30:32;;;;;;;;;;;;;;;;;;5081041;28;19982;-82
2022/11/27 05:32:59;;;;;;;;;;;;;;;;;;5079328;28;20433;-81
2022/11/27 05:35:25;;;;;;;;;;;;;;;;;;5079591;28;19981;-80
2022/11/27 05:37:53;;;;;;;;;;;;;;;;;;5078354;28;19924;-80
2022/11/27 05:40:19;;;;;;;;;;;;;;;;;;5079747;28;19929;-80
2022/11/27 05:42:46;;;;;;;;;;;;;;;;;;5079300;28;20027;-82
2022/11/27 05:45:12;;;;;;;;;;;;;;;;;;5080131;28;20018;-81
2022/11/27 05:47:39;;;;;;;;;;;;;;;;;;5079451;28;19928;-81
2022/11/27 05:50:06;;;;;;;;;;;;;;;;;;5079710;28;20470;-81
2022/11/27 05:52:32;;;;;;;;;;;;;;;;;;5079152;28;19940;-80
2022/11/27 05:55:00;;;;;;;;;;;;;;;;;;5078928;28;19978;-82
2022/11/27 05:57:27;;;;;;;;;;;;;;;;;;5078542;28;19931;-81
2022/11/27 05:59:53;;;;;;;;;;;;;;;;;;5079370;28;19933;-82
2022/11/27 06:02:19;;;;;;;;;;;;;;;;;;5078896;28;19967;-81
2022/11/27 06:04:46;;;;;;;;;;;;;;;;;;5065512;28;20003;-81
2022/11/27 06:07:12;;;;;;;;;;;;;;;;;;5059093;28;20028;-80
2022/11/27 06:09:39;;;;;;;;;;;;;;;;;;5059733;28;20154;-82
2022/11/27 06:12:07;;;;;;;;;;;;;;;;;;5059781;28;19964;-81
2022/11/27 06:14:34;;;;;;;;;;;;;;;;;;5060349;28;20020;-81
2022/11/27 06:17:00;;;;;;;;;;;;;;;;;;5059872;28;19924;-80
2022/11/27 06:19:27;;;;;;;;;;;;;;;;;;5074950;28;20620;-79
2022/11/27 06:21:53;;;;;;;;;;;;;;;;;;5079280;28;20007;-81
2022/11/27 06:24:20;;;;;;;;;;;;;;;;;;5077242;28;20587;-80
2022/11/27 06:26:46;;;;;;;;;;;;;;;;;;5077056;28;19924;-79
2022/11/27 06:29:14;;;;;;;;;;;;;;;;;;5077035;28;20294;-81
2022/11/27 06:31:41;;;;;;;;;;;;;;;;;;5079954;28;19968;-79
2022/11/27 06:34:07;;;;;;;;;;;;;;;;;;5085897;28;20065;-77
2022/11/27 06:36:36;;;;;;;;;;;;;;;;;;5091139;28;19924;-81
2022/11/27 06:39:04;;;;;;;;;;;;;;;;;;5084506;28;19924;-81
2022/11/27 06:41:30;;;;;;;;;;;;;;;;;;5082468;28;19935;-80
2022/11/27 06:43:58;;;;;;;;;;;;;;;;;;5082223;28;19958;-82
2022/11/27 06:46:27;;;;;;;;;;;;;;;;;;5081202;28;20450;-82
2022/11/27 06:48:54;;;;;;;;;;;;;;;;;;5078335;28;20394;-82
2022/11/27 06:51:21;;;;;;;;;;;;;;;;;;5079525;28;19990;-79
2022/11/27 06:53:47;;;;;;;;;;;;;;;;;;5076935;28;20298;-80
2022/11/27 06:56:15;;;;;;;;;;;;;;;;;;5076593;28;19991;-80
2022/11/27 06:58:41;;;;;;;;;;;;;;;;;;5076400;28;20023;-80
2022/11/27 07:01:09;;;;;;;;;;;;;;;;;;5078579;28;20434;-80
2022/11/27 07:03:37;;;;;;;;;;;;;;;;;;5075110;28;20011;-79
2022/11/27 07:06:05;;;;;;;;;;;;;;;;;;5078579;28;20414;-81
2022/11/27 07:08:32;;;;;;;;;;;;;;;;;;5078100;28;19970;-78
2022/11/27 07:11:01;;;;;;;;;;;;;;;;;;5077774;28;19992;-82
2022/11/27 07:13:28;;;;;;;;;;;;;;;;;;5078460;28;20359;-80
2022/11/27 07:16:09;;;;;;;;;;;;;;;;;;5081130;28;19987;-82
2022/11/27 07:18:41;;;;;;;;;;;;;;;;;;5078915;28;19947;-80
2022/11/27 07:21:11;;;;;;;;;;;;;;;;;;5077745;28;20018;-79
2022/11/27 07:23:37;;;;;;;;;;;;;;;;;;5077765;28;19929;-82
2022/11/27 07:26:18;;;;;;;;;;;;;;;;;;5080722;28;20000;-81
2022/11/27 07:28:45;;;;;;;;;;;;;;;;;;5080609;28;19964;-81
2022/11/27 07:31:12;;;;;;;;;;;;;;;;;;5077773;28;19963;-82
2022/11/27 07:33:40;;;;;;;;;;;;;;;;;;5080362;28;19924;-82
2022/11/27 07:36:08;;;;;;;;;;;;;;;;;;5082810;28;19960;-82
2022/11/27 07:38:34;;;;;;;;;;;;;;;;;;5080821;28;19964;-82
2022/11/27 07:41:01;;;;;;;;;;;;;;;;;;5081025;28;19928;-82
2022/11/27 07:43:28;;;;;;;;;;;;;;;;;;5078270;28;20003;-82
2022/11/27 07:45:54;;;;;;;;;;;;;;;;;;5079016;28;19924;-82
2022/11/27 07:48:21;;;;;;;;;;;;;;;;;;5078494;28;20011;-81
2022/11/27 07:50:49;;;;;;;;;;;;;;;;;;5076728;28;20027;-80
2022/11/27 07:53:15;;;;;;;;;;;;;;;;;;5075595;28;19928;-81
2022/11/27 07:55:42;;;;;;;;;;;;;;;;;;5075974;28;19952;-80
2022/11/27 07:58:08;;;;;;;;;;;;;;;;;;5074930;28;20451;-81
2022/11/27 08:00:35;;;;;;;;;;;;;;;;;;5075766;28;19924;-81
2022/11/27 08:03:02;;;;;;;;;;;;;;;;;;5076987;28;19930;-79
2022/11/27 08:05:28;;;;;;;;;;;;;;;;;;5077930;28;20018;-80
2022/11/27 08:07:59;;;;;;;;;;;;;;;;;;5079091;28;19980;-80
2022/11/27 08:10:25;;;;;;;;;;;;;;;;;;5080245;28;20447;-78
2022/11/27 08:12:52;;;;;;;;;;;;;;;;;;5083479;28;20395;-79
2022/11/27 08:15:19;;;;;;;;;;;;;;;;;;5082449;28;19925;-80
2022/11/27 08:17:45;;;;;;;;;;;;;;;;;;5089260;28;19996;-79
2022/11/27 08:20:12;;;;;;;;;;;;;;;;;;5087818;28;19959;-80
2022/11/27 08:22:38;;;;;;;;;;;;;;;;;;5090395;28;19909;-80
2022/11/27 08:25:06;;;;;;;;;;;;;;;;;;5085698;28;19983;-80
2022/11/27 08:27:33;;;;;;;;;;;;;;;;;;5086481;28;19983;-81
2022/11/27 08:29:59;;;;;;;;;;;;;;;;;;5080177;28;19959;-81
2022/11/27 08:32:26;;;;;;;;;;;;;;;;;;5077718;28;19954;-81
2022/11/27 08:34:52;;;;;;;;;;;;;;;;;;5077505;28;20359;-81
2022/11/27 08:37:20;;;;;;;;;;;;;;;;;;5077627;28;19924;-81
2022/11/27 08:39:47;;;;;;;;;;;;;;;;;;5077050;28;20007;-81
2022/11/27 08:42:15;;;;;;;;;;;;;;;;;;5078051;28;19924;-82
2022/11/27 08:44:41;;;;;;;;;;;;;;;;;;5077193;28;19936;-82
2022/11/27 08:47:08;;;;;;;;;;;;;;;;;;5077272;28;19986;-82
2022/11/27 08:49:34;;;;;;;;;;;;;;;;;;5077481;28;20016;-81
2022/11/27 08:52:00;;;;;;;;;;;;;;;;;;5077421;28;20031;-81
2022/11/27 08:54:27;;;;;;;;;;;;;;;;;;5078016;28;20082;-82
2022/11/27 08:56:53;;;;;;;;;;;;;;;;;;5076288;28;19924;-81
2022/11/27 08:59:21;;;;;;;;;;;;;;;;;;5077384;28;20031;-81
2022/11/27 09:01:48;;;;;;;;;;;;;;;;;;5077545;28;19931;-81
2022/11/27 09:04:14;;;;;;;;;;;;;;;;;;5078105;28;20004;-82
2022/11/27 09:06:41;;;;;;;;;;;;;;;;;;5077314;28;19987;-81
2022/11/27 09:09:07;;;;;;;;;;;;;;;;;;5077200;28;19967;-83
2022/11/27 09:11:34;;;;;;;;;;;;;;;;;;5076831;28;19931;-82
2022/11/27 09:14:01;;;;;;;;;;;;;;;;;;5077751;28;20538;-82
2022/11/27 09:16:29;;;;;;;;;;;;;;;;;;5077265;28;19954;-82
2022/11/27 09:18:56;;;;;;;;;;;;;;;;;;5078000;28;19924;-82
2022/11/27 09:21:25;;;;;;;;;;;;;;;;;;5077072;28;20015;-82
2022/11/27 09:23:52;;;;;;;;;;;;;;;;;;5077348;28;19932;-83
2022/11/27 09:26:19;;;;;;;;;;;;;;;;;;5074806;28;19925;-79
2022/11/27 09:28:45;;;;;;;;;;;;;;;;;;5077795;28;19956;-81
2022/11/27 09:31:12;;;;;;;;;;;;;;;;;;5076470;28;20011;-80
2022/11/27 09:33:41;;;;;;;;;;;;;;;;;;5075480;28;19967;-80
2022/11/27 09:36:09;;;;;;;;;;;;;;;;;;5076270;28;19998;-80
2022/11/27 09:38:36;;;;;;;;;;;;;;;;;;5075644;28;19948;-82
2022/11/27 09:41:06;;;;;;;;;;;;;;;;;;5077496;28;20007;-80
2022/11/27 09:43:34;;;;;;;;;;;;;;;;;;5079017;28;20279;-80
2022/11/27 09:46:07;;;;;;;;;;;;;;;;;;5078592;28;20011;-81
2022/11/27 09:48:34;;;;;;;;;;;;;;;;;;5077403;28;20363;-81
2022/11/27 09:51:05;;;;;;;;;;;;;;;;;;5077782;28;19972;-80
2022/11/27 09:53:34;;;;;;;;;;;;;;;;;;5078097;28;19929;-81
2022/11/27 09:56:03;;;;;;;;;;;;;;;;;;5080474;28;19931;-82
2022/11/27 09:58:35;;;;;;;;;;;;;;;;;;5080710;28;19988;-83
2022/11/27 10:01:09;;;;;;;;;;;;;;;;;;5079936;28;19974;-81
2022/11/27 10:03:35;;;;;;;;;;;;;;;;;;5080866;28;19924;-82
2022/11/27 10:06:14;;;;;;;;;;;;;;;;;;5085957;28;20005;-82
2022/11/27 10:08:44;;;;;;;;;;;;;;;;;;5087540;28;19929;-82
2022/11/27 10:11:17;;;;;;;;;;;;;;;;;;5085948;28;19966;-81
2022/11/27 10:13:50;;;;;;;;;;;;;;;;;;5080048;28;20015;-81
2022/11/27 10:16:21;;;;;;;;;;;;;;;;;;5080916;28;19924;-82
2022/11/27 10:18:51;;;;;;;;;;;;;;;;;;5080114;28;19960;-82
2022/11/27 10:21:24;;;;;;;;;;;;;;;;;;5079990;28;19974;-80
2022/11/27 10:23:54;;;;;;;;;;;;;;;;;;5068661;28;19924;-82
2022/11/27 10:26:24;;;;;;;;;;;;;;;;;;5080206;28;19992;-82
2022/11/27 10:28:56;;;;;;;;;;;;;;;;;;5079547;28;19939;-78
2022/11/27 10:31:27;;;;;;;;;;;;;;;;;;5079913;28;19924;-81
2022/11/27 10:34:07;;;;;;;;;;;;;;;;;;5091101;28;19931;-83
2022/11/27 10:36:36;;;;;;;;;;;;;;;;;;5080774;28;20016;-81
2022/11/27 10:39:04;;;;;;;;;;;;;;;;;;5080151;28;19987;-82
2022/11/27 10:41:39;;;;;;;;;;;;;;;;;;5082070;28;19971;-84
2022/11/27 10:44:15;;;;;;;;;;;;;;;;;;5081874;28;20015;-84
2022/11/27 10:46:42;;;;;;;;;;;;;;;;;;5081795;28;20032;-83
2022/11/27 10:52:26;;;;;;;;;;;;;;;;;;5020790;28;20483;-83
2022/11/27 10:54:56;;;;;;;;;;;;;;;;;;5019987;28;19925;-83
2022/11/27 10:57:37;;;;;;;;;;;;;;;;;;5046198;28;19978;-81
2022/11/27 11:00:09;;;;;;;;;;;;;;;;;;5077906;28;20387;-79
2022/11/27 11:02:36;;;;;;;;;;;;;;;;;;5078341;28;19925;-83
2022/11/27 11:05:13;;;;;;;;;;;;;;;;;;5077653;28;19986;-82
2022/11/27 11:07:41;;;;;;;;;;;;;;;;;;5075748;28;19924;-83
2022/11/27 11:10:21;;;;;;;;;;;;;;;;;;5077164;28;20517;-81
2022/11/27 11:12:47;;;;;;;;;;;;;;;;;;5077194;28;19924;-81
2022/11/27 11:15:15;;;;;;;;;;;;;;;;;;5077685;28;19971;-81
2022/11/27 11:17:41;;;;;;;;;;;;;;;;;;5077780;28;20011;-82
2022/11/27 11:20:15;;;;;;;;;;;;;;;;;;5078762;28;20015;-81
2022/11/27 11:22:46;;;;;;;;;;;;;;;;;;5078409;28;19924;-82
2022/11/27 11:25:16;;;;;;;;;;;;;;;;;;5079659;28;19988;-83
2022/11/27 11:27:43;;;;;;;;;;;;;;;;;;5077763;28;19929;-82
2022/11/27 11:30:20;;;;;;;;;;;;;;;;;;5074668;28;19992;-81
2022/11/27 11:32:48;;;;;;;;;;;;;;;;;;5072158;28;19932;-82
2022/11/27 11:35:24;;;;;;;;;;;;;;;;;;5078959;28;19929;-81
2022/11/27 11:37:52;;;;;;;;;;;;;;;;;;5075750;28;19924;-80
2022/11/27 11:40:22;;;;;;;;;;;;;;;;;;5077440;28;20076;-78
2022/11/27 11:42:51;;;;;;;;;;;;;;;;;;5076274;28;19998;-78
2022/11/27 11:45:19;;;;;;;;;;;;;;;;;;5058780;28;19925;-79
2022/11/27 11:47:46;;;;;;;;;;;;;;;;;;5078902;28;19987;-80
2022/11/27 11:50:13;;;;;;;;;;;;;;;;;;5077882;28;19975;-80
2022/11/27 11:52:46;;;;;;;;;;;;;;;;;;5076224;28;20054;-79
2022/11/27 11:55:18;;;;;;;;;;;;;;;;;;5075787;28;20011;-78
2022/11/27 11:58:12;;;;;;;;;;;;;;;;;;5078782;28;19924;-78
2022/11/27 12:00:41;;;;;;;;;;;;;;;;;;5085316;28;20379;-79
2022/11/27 12:03:18;;;;;;;;;;;;;;;;;;5085161;28;19924;-78
2022/11/27 12:05:52;;;;;;;;;;;;;;;;;;5082933;28;19960;-79
2022/11/27 12:08:26;;;;;;;;;;;;;;;;;;5080505;28;19967;-79
2022/11/27 12:10:58;;;;;;;;;;;;;;;;;;5077411;28;19928;-80
2022/11/27 12:13:30;;;;;;;;;;;;;;;;;;5071763;28;19963;-80
2022/11/27 12:15:59;;;;;;;;;;;;;;;;;;5079457;28;20024;-81
2022/11/27 12:18:31;;;;;;;;;;;;;;;;;;5078470;28;19971;-81
2022/11/27 12:21:05;;;;;;;;;;;;;;;;;;5077297;28;19924;-78
2022/11/27 12:23:43;;;;;;;;;;;;;;;;;;5061762;28;20016;-79
2022/11/27 12:26:17;;;;;;;;;;;;;;;;;;5056618;28;19925;-80
2022/11/27 12:28:57;;;;;;;;;;;;;;;;;;5065111;28;19929;-77
2022/11/27 12:31:27;;;;;;;;;;;;;;;;;;5073690;28;20023;-79
2022/11/27 12:33:58;;;;;;;;;;;;;;;;;;5077064;28;20008;-78
2022/11/27 12:36:30;;;;;;;;;;;;;;;;;;5076305;28;20456;-78
2022/11/27 12:39:09;;;;;;;;;;;;;;;;;;5076736;28;19955;-79
2022/11/27 12:41:54;;;;;;;;;;;;;;;;;;5078226;28;19967;-80
2022/11/27 12:44:25;;;;;;;;;;;;;;;;;;5075894;28;19996;-83
2022/11/27 12:46:54;;;;;;;;;;;;;;;;;;5077181;28;19928;-83
2022/11/27 12:49:23;;;;;;;;;;;;;;;;;;5076529;28;20334;-80
2022/11/27 12:51:51;;;;;;;;;;;;;;;;;;5076205;28;20011;-78
2022/11/27 12:54:20;;;;;;;;;;;;;;;;;;5075021;28;19924;-79
2022/11/27 12:56:48;;;;;;;;;;;;;;;;;;5075979;28;19925;-81
2022/11/27 12:59:18;;;;;;;;;;;;;;;;;;5076315;28;20368;-84
2022/11/27 13:01:47;;;;;;;;;;;;;;;;;;5078365;28;20000;-83
2022/11/27 13:04:18;;;;;;;;;;;;;;;;;;5071651;28;20003;-82
2022/11/27 13:06:48;;;;;;;;;;;;;;;;;;5076609;28;19924;-80
2022/11/27 13:09:18;;;;;;;;;;;;;;;;;;5074333;28;19931;-78
2022/11/27 13:11:45;;;;;;;;;;;;;;;;;;5076174;28;19924;-79
2022/11/27 13:14:12;;;;;;;;;;;;;;;;;;5076373;28;19986;-80
2022/11/27 13:16:43;;;;;;;;;;;;;;;;;;5075362;28;19925;-79
2022/11/27 13:19:14;;;;;;;;;;;;;;;;;;5069249;28;19940;-80
2022/11/27 13:21:41;;;;;;;;;;;;;;;;;;5068626;28;20011;-80
2022/11/27 13:24:11;;;;;;;;;;;;;;;;;;5068503;22;20015;-80
2022/11/27 13:26:41;;;;;;;;;;;;;;;;;;5055691;28;19925;-79
2022/11/27 13:29:21;;;;;;;;;;;;;;;;;;5055743;28;19947;-79
2022/11/27 13:31:51;;;;;;;;;;;;;;;;;;5060216;28;20045;-79
2022/11/27 13:34:21;;;;;;;;;;;;;;;;;;5057554;28;19924;-79
2022/11/27 13:36:54;;;;;;;;;;;;;;;;;;5053696;28;19972;-78
2022/11/27 13:39:22;;;;;;;;;;;;;;;;;;5051251;28;20391;-79
2022/11/27 13:41:49;;;;;;;;;;;;;;;;;;5059042;28;19968;-79
2022/11/27 13:44:22;;;;;;;;;;;;;;;;;;5058110;28;19924;-79
2022/11/27 13:46:53;;;;;;;;;;;;;;;;;;5060166;28;20023;-78
2022/11/27 13:49:25;;;;;;;;;;;;;;;;;;5059727;28;19932;-79
2022/11/27 13:51:51;;;;;;;;;;;;;;;;;;5048635;28;19929;-77
2022/11/27 13:54:20;;;;;;;;;;;;;;;;;;5046731;28;20461;-80
2022/11/27 13:56:47;;;;;;;;;;;;;;;;;;5042100;28;19925;-79
2022/11/27 13:59:15;;;;;;;;;;;;;;;;;;5048979;28;20467;-78
2022/11/27 14:01:52;;;;;;;;;;;;;;;;;;5047962;28;20013;-78
2022/11/27 14:04:19;;;;;;;;;;;;;;;;;;5053519;28;20430;-79
2022/11/27 14:06:51;;;;;;;;;;;;;;;;;;5046392;28;20004;-78
2022/11/27 14:09:18;;;;;;;;;;;;;;;;;;5046523;28;20055;-79
2022/11/27 14:11:46;;;;;;;;;;;;;;;;;;5038719;28;19932;-79
2022/11/27 14:14:14;;;;;;;;;;;;;;;;;;5044826;28;19978;-79
2022/11/27 14:16:41;;;;;;;;;;;;;;;;;;5058479;28;19998;-79
2022/11/27 14:19:23;;;;;;;;;;;;;;;;;;5058202;28;19925;-79
2022/11/27 14:21:51;;;;;;;;;;;;;;;;;;5058165;28;19975;-79
2022/11/27 14:24:24;;;;;;;;;;;;;;;;;;5058244;28;20402;-79
2022/11/27 14:26:51;;;;;;;;;;;;;;;;;;5058085;28;20303;-79
2022/11/27 14:29:19;;;;;;;;;;;;;;;;;;5058310;28;19972;-79
2022/11/27 14:31:55;;;;;;;;;;;;;;;;;;5057581;28;20020;-79
2022/11/27 14:34:28;;;;;;;;;;;;;;;;;;5058336;28;19971;-79
2022/11/27 14:36:56;;;;;;;;;;;;;;;;;;5058287;28;19936;-80
2022/11/27 14:39:23;;;;;;;;;;;;;;;;;;5058089;28;19994;-79
2022/11/27 14:41:56;;;;;;;;;;;;;;;;;;5056693;28;19937;-79
2022/11/27 14:44:29;;;;;;;;;;;;;;;;;;5057874;28;19928;-80
2022/11/27 14:46:57;;;;;;;;;;;;;;;;;;5058268;28;19925;-79
2022/11/27 14:49:24;;;;;;;;;;;;;;;;;;5058597;28;19975;-80
2022/11/27 14:51:51;;;;;;;;;;;;;;;;;;5057094;28;20296;-80
2022/11/27 14:54:22;;;;;;;;;;;;;;;;;;5057988;28;19925;-79
2022/11/27 14:56:48;;;;;;;;;;;;;;;;;;5047585;28;19968;-79
2022/11/27 14:59:16;;;;;;;;;;;;;;;;;;5043199;28;19972;-79
2022/11/27 15:01:44;;;;;;;;;;;;;;;;;;5049985;28;20008;-81
2022/11/27 15:04:25;;;;;;;;;;;;;;;;;;5049972;28;19925;-80
2022/11/27 15:06:51;;;;;;;;;;;;;;;;;;5049209;28;19964;-79
2022/11/27 15:09:20;;;;;;;;;;;;;;;;;;5053797;28;20387;-80
2022/11/27 15:11:50;;;;;;;;;;;;;;;;;;5053610;28;19933;-81
2022/11/27 15:14:16;;;;;;;;;;;;;;;;;;5052707;28;19925;-79
2022/11/27 15:16:44;;;;;;;;;;;;;;;;;;5058373;28;19964;-80
2022/11/27 15:19:15;;;;;;;;;;;;;;;;;;5046734;28;19936;-78
2022/11/27 15:21:41;;;;;;;;;;;;;;;;;;5061668;28;19980;-81
2022/11/27 15:24:27;;;;;;;;;;;;;;;;;;5057664;28;20011;-80
2022/11/27 15:26:54;;;;;;;;;;;;;;;;;;5056199;28;20379;-80
2022/11/27 15:29:32;;;;;;;;;;;;;;;;;;5059365;28;20035;-80
2022/11/27 15:31:58;;;;;;;;;;;;;;;;;;5061785;28;20019;-81
2022/11/27 15:34:24;;;;;;;;;;;;;;;;;;5070286;28;19925;-78
2022/11/27 15:36:57;;;;;;;;;;;;;;;;;;5057543;28;19960;-79
2022/11/27 15:39:25;;;;;;;;;;;;;;;;;;5048259;28;20338;-80
2022/11/27 15:41:53;;;;;;;;;;;;;;;;;;5061569;28;20015;-81
2022/11/27 15:44:20;;;;;;;;;;;;;;;;;;5061148;28;20019;-80
2022/11/27 15:46:46;;;;;;;;;;;;;;;;;;5070522;28;19913;-79
2022/11/27 15:49:13;;;;;;;;;;;;;;;;;;5077110;28;19975;-80
2022/11/27 15:51:40;;;;;;;;;;;;;;;;;;5078035;28;19925;-80
2022/11/27 15:54:06;;;;;;;;;;;;;;;;;;5074884;28;19924;-80
2022/11/27 15:56:34;;;;;;;;;;;;;;;;;;5061132;28;19929;-80
2022/11/27 15:59:01;;;;;;;;;;;;;;;;;;5059041;28;19972;-79
2022/11/27 16:01:27;;;;;;;;;;;;;;;;;;5058160;28;19996;-80
2022/11/27 16:03:54;;;;;;;;;;;;;;;;;;5057791;28;20366;-80
2022/11/27 16:06:22;;;;;;;;;;;;;;;;;;5058086;28;19946;-79
2022/11/27 16:08:52;;;;;;;;;;;;;;;;;;5057455;28;19967;-79
2022/11/27 16:11:32;;;;;;;;;;;;;;;;;;5059774;28;20066;-78
2022/11/27 16:14:00;;;;;;;;;;;;;;;;;;5057983;28;19983;-79
2022/11/27 16:16:26;;;;;;;;;;;;;;;;;;5059212;28;19928;-80
2022/11/27 16:18:55;;;;;;;;;;;;;;;;;;5057895;28;19925;-80
2022/11/27 16:21:22;;;;;;;;;;;;;;;;;;5062435;28;19925;-79
2022/11/27 16:23:48;;;;;;;;;;;;;;;;;;5057274;28;19925;-78
2022/11/27 16:26:15;;;;;;;;;;;;;;;;;;5057972;28;20383;-79
2022/11/27 16:28:41;;;;;;;;;;;;;;;;;;5058611;28;19964;-80
2022/11/27 16:31:10;;;;;;;;;;;;;;;;;;5058941;28;20024;-79
2022/11/27 16:33:37;;;;;;;;;;;;;;;;;;5059076;28;20016;-80
2022/11/27 16:36:04;;;;;;;;;;;;;;;;;;5057437;28;19999;-79
2022/11/27 16:38:31;;;;;;;;;;;;;;;;;;5068278;28;19935;-79
2022/11/27 16:40:59;;;;;;;;;;;;;;;;;;5066149;28;19996;-80
2022/11/27 16:43:27;;;;;;;;;;;;;;;;;;5064350;28;20023;-79
2022/11/27 16:45:54;;;;;;;;;;;;;;;;;;5065610;28;19929;-79
2022/11/27 16:48:21;;;;;;;;;;;;;;;;;;5065387;28;19956;-78
2022/11/27 16:50:48;;;;;;;;;;;;;;;;;;5064399;28;19924;-79
2022/11/27 16:53:14;;;;;;;;;;;;;;;;;;5065001;28;19924;-78
2022/11/27 16:55:42;;;;;;;;;;;;;;;;;;5064692;28;19948;-81
2022/11/27 16:58:09;;;;;;;;;;;;;;;;;;5070345;28;19993;-79